NCAR-RAP Real-Time Weather Data

Output produced by METARs form (17 September 2019  16:41 UTC)
found at http://weather.rap.ucar.edu/surface/
 
KDTW 171553Z 05006KT 6SM HZ OVC022 22/16 A3022 RMK AO2 SLP232 T02170161
KDTW 171453Z 05006KT 4SM HZ BKN015 OVC030 21/16 A3022 RMK AO2 SLP232 T02060161 50005
KDTW 171422Z 04008KT 4SM HZ BKN015 OVC030 20/16 A3022 RMK AO2 T02000156
KDTW 171353Z 02006KT 4SM HZ BKN011 OVC025 20/16 A3023 RMK AO2 SLP232 T02000161
KDTW 171312Z 02006KT 4SM HZ BKN011 OVC025 19/16 A3022 RMK AO2 T01890156
KDTW 171253Z 02006KT 4SM HZ SCT008 OVC025 18/16 A3022 RMK AO2 SLP231 T01830156
KDTW 171201Z 01005KT 3SM BR SCT008 OVC020 18/16 A3021 RMK AO2 TWR VIS 4 T01780156
KDTW 171153Z 36006KT 3SM BR SCT008 OVC014 18/16 A3021 RMK AO2 TWR VIS 4 SLP226 T01780156 10183 20178 53013
KDTW 171053Z 02006KT 6SM HZ SCT008 OVC014 18/15 A3019 RMK AO2 SLP218 T01780150
KDTW 170953Z 01005KT 5SM HZ BKN008 OVC014 18/15 A3017 RMK AO2 SLP213 T01780150
KDTW 170946Z 01004KT 5SM HZ BKN008 OVC014 18/15 A3017 RMK AO2 T01780150
KDTW 170853Z 04006KT 5SM HZ SCT008 OVC012 18/15 A3016 RMK AO2 SLP209 T01780150 51001
KDTW 170834Z 03006KT 5SM HZ SCT008 OVC012 18/15 A3016 RMK AO2 T01780150
KDTW 170753Z 04006KT 5SM HZ BKN008 OVC012 18/14 A3016 RMK AO2 SLP208 T01780144
KDTW 170741Z 05005KT 5SM HZ BKN008 OVC012 18/15 A3015 RMK AO2 T01780150
KDTW 170653Z 04006KT 6SM HZ SCT007 OVC012 18/15 A3016 RMK AO2 SLP209 T01780150
KDTW 170553Z 03010KT 7SM BKN007 OVC012 18/16 A3016 RMK AO2 SLP208 T01830156 10239 20183 52006
KDTW 170546Z 03009KT 7SM BKN007 OVC012 18/16 A3015 RMK AO2 T01830156
KDTW 170525Z 05010KT 8SM SCT007 OVC012 19/16 A3015 RMK AO2 T01890161
KDTW 170453Z 06007KT 7SM BKN020 OVC045 19/16 A3014 RMK AO2 SLP204 T01890161 402670189
KDTW 170444Z 06008KT 7SM BKN020 OVC045 19/16 A3015 RMK AO2 T01890161
KDTW 170353Z 03007KT 7SM FEW047 SCT200 19/17 A3015 RMK AO2 SLP205 T01940167
KDTW 170253Z 03006KT 9SM BKN046 BKN200 21/17 A3014 RMK AO2 SLP202 T02060172 51016
KDTW 170053Z 04010KT 10SM BKN037 BKN200 23/18 A3011 RMK AO2 SLP192 T02280178
KDTW 162353Z 01006KT 10SM FEW038 BKN060 BKN200 24/17 A3009 RMK AO2 SLP186 T02390172 10267 20239 53007
KDTW 162253Z 34006KT 10SM SCT065 BKN200 24/18 A3008 RMK AO2 SLP183 T02440178
KDTW 162153Z 34005KT 10SM BKN065 BKN200 26/18 A3007 RMK AO2 SLP180 T02560183
KDTW 162053Z 34005KT 10SM FEW035 BKN055 BKN070 26/18 A3007 RMK AO2 SLP179 T02560178 58006
KDTW 161953Z 35006KT 10SM SCT034 BKN065 26/17 A3007 RMK AO2 SLP181 T02610172
KDTW 161853Z 36007KT 10SM SCT030 BKN060 26/18 A3008 RMK AO2 SLP182 T02560178